Time;durP1;ratioP1;P1;durP2;ratioP2;P2;SDS_P1;SDS_P2;PMS_P1;PMS_P2;Temp;Humidity;BMP_temperature;BMP_pressure;BME280_temperature;BME280_humidity;BME280_pressure;Samples;Min_cycle;Max_cycle;Signal;HPM_P1;HPM_P2
2022/03/04 00:01:55;;;;;;;29.92;16.80;;;7.40;67.20;;;;;;5066567;28;20190;-67
2022/03/04 00:04:21;;;;;;;26.30;15.88;;;7.40;67.40;;;;;;5068750;28;20335;-67
2022/03/04 00:06:47;;;;;;;30.83;16.70;;;7.40;67.50;;;;;;5068685;28;20183;-68
2022/03/04 00:09:12;;;;;;;26.65;15.70;;;7.40;67.50;;;;;;5069694;28;20678;-66
2022/03/04 00:11:38;;;;;;;32.72;17.60;;;7.40;67.70;;;;;;5070159;28;20190;-67
2022/03/04 00:14:04;;;;;;;27.35;16.88;;;7.40;68.00;;;;;;5075561;28;20206;-65
2022/03/04 00:16:30;;;;;;;29.70;16.88;;;7.30;68.10;;;;;;5076220;28;20189;-66
2022/03/04 00:19:09;;;;;;;30.92;17.42;;;7.30;68.10;;;;;;5072403;28;20178;-68
2022/03/04 00:21:44;;;;;;;30.35;16.42;;;7.30;68.30;;;;;;5071004;28;20213;-68
2022/03/04 00:24:11;;;;;;;28.05;16.27;;;7.30;68.40;;;;;;5054447;28;20190;-68
2022/03/04 00:26:38;;;;;;;28.30;16.30;;;7.30;68.50;;;;;;5068958;28;20209;-67
2022/03/04 00:29:05;;;;;;;29.95;16.60;;;7.20;68.60;;;;;;5072369;28;20595;-67
2022/03/04 00:31:32;;;;;;;31.23;17.02;;;7.20;68.80;;;;;;5053010;28;20226;-68
2022/03/04 00:33:58;;;;;;;30.17;17.10;;;7.10;69.00;;;;;;5072577;28;20225;-67
2022/03/04 00:36:24;;;;;;;30.02;16.52;;;7.10;69.30;;;;;;5052717;28;20304;-67
2022/03/04 00:38:51;;;;;;;26.90;16.88;;;7.10;69.40;;;;;;5053985;28;20273;-66
2022/03/04 00:41:18;;;;;;;27.65;15.68;;;7.00;69.50;;;;;;5069321;28;20186;-66
2022/03/04 00:43:44;;;;;;;32.17;16.88;;;7.00;69.70;;;;;;5070551;28;20187;-65
2022/03/04 00:46:11;;;;;;;28.92;17.05;;;7.00;69.80;;;;;;5079628;28;20277;-68
2022/03/04 00:48:37;;;;;;;28.55;16.98;;;6.90;69.90;;;;;;5071703;28;20191;-68
2022/03/04 00:51:04;;;;;;;34.13;17.73;;;6.90;70.10;;;;;;5076046;28;20194;-67
2022/03/04 00:53:30;;;;;;;28.70;17.00;;;6.90;70.30;;;;;;5071861;28;20720;-68
2022/03/04 00:55:56;;;;;;;28.52;16.77;;;6.90;70.60;;;;;;5072155;28;20183;-65
2022/03/04 00:58:22;;;;;;;29.40;16.42;;;6.90;70.70;;;;;;5071105;28;20176;-65
2022/03/04 01:00:48;;;;;;;28.75;16.80;;;6.80;70.80;;;;;;5070199;28;20277;-64
2022/03/04 01:03:14;;;;;;;31.98;16.33;;;6.80;70.90;;;;;;5071645;28;20692;-65
2022/03/04 01:05:39;;;;;;;28.40;16.95;;;6.80;71.00;;;;;;5069734;28;20195;-67
2022/03/04 01:08:05;;;;;;;30.52;16.92;;;6.70;71.20;;;;;;5080894;28;20183;-66
2022/03/04 01:10:31;;;;;;;28.30;16.08;;;6.70;71.30;;;;;;5069673;28;20186;-66
2022/03/04 01:12:57;;;;;;;30.13;16.98;;;6.70;71.40;;;;;;5069838;28;20401;-69
2022/03/04 01:15:22;;;;;;;31.98;16.63;;;6.70;71.50;;;;;;5068554;28;20205;-68
2022/03/04 01:17:48;;;;;;;29.13;16.77;;;6.70;71.60;;;;;;5070245;28;20187;-68
2022/03/04 01:20:14;;;;;;;30.95;17.23;;;6.70;71.70;;;;;;5058957;28;20190;-68
2022/03/04 01:22:40;;;;;;;29.23;17.42;;;6.70;71.80;;;;;;5070686;28;20194;-68
2022/03/04 01:25:06;;;;;;;30.25;17.10;;;6.70;71.90;;;;;;5068838;28;20190;-68
2022/03/04 01:27:32;;;;;;;32.10;17.38;;;6.60;72.00;;;;;;5074790;28;20216;-69
2022/03/04 01:29:57;;;;;;;32.90;16.92;;;6.60;72.10;;;;;;5071194;28;20226;-67
2022/03/04 01:32:23;;;;;;;28.92;17.15;;;6.60;72.20;;;;;;5052248;28;20715;-68
2022/03/04 01:34:49;;;;;;;31.00;17.10;;;6.60;72.30;;;;;;5069099;28;20187;-69
2022/03/04 01:37:14;;;;;;;30.23;16.55;;;6.50;72.40;;;;;;5072785;28;20200;-68
2022/03/04 01:39:40;;;;;;;32.25;16.90;;;6.50;72.60;;;;;;5068862;28;20198;-67
2022/03/04 01:42:06;;;;;;;29.52;16.63;;;6.50;72.70;;;;;;5070492;28;20178;-68
2022/03/04 01:44:32;;;;;;;29.13;16.58;;;6.50;72.80;;;;;;5051493;28;20186;-69
2022/03/04 01:46:58;;;;;;;29.85;16.45;;;6.40;72.80;;;;;;5057473;28;20179;-67
2022/03/04 01:49:24;;;;;;;32.30;17.02;;;6.40;73.00;;;;;;5069530;28;20264;-68
2022/03/04 01:51:49;;;;;;;31.58;17.35;;;6.30;73.00;;;;;;5070226;28;20549;-68
2022/03/04 01:54:15;;;;;;;29.63;16.77;;;6.30;73.10;;;;;;5080134;28;20203;-68
2022/03/04 01:56:41;;;;;;;29.42;16.98;;;6.30;73.30;;;;;;5070320;28;20317;-68
2022/03/04 01:59:07;;;;;;;29.05;17.33;;;6.20;73.30;;;;;;5068686;28;20540;-68
2022/03/04 02:01:34;;;;;;;31.30;17.35;;;6.20;73.50;;;;;;5052209;28;20557;-68
2022/03/04 02:04:00;;;;;;;29.88;16.05;;;6.20;73.60;;;;;;5069099;28;20210;-68
2022/03/04 02:06:26;;;;;;;30.02;16.63;;;6.20;73.80;;;;;;5070378;28;20186;-67
2022/03/04 02:08:52;;;;;;;31.23;16.98;;;6.10;73.90;;;;;;5070459;28;20189;-67
2022/03/04 02:11:17;;;;;;;28.38;16.33;;;6.10;74.00;;;;;;5082409;28;20193;-70
2022/03/04 02:13:43;;;;;;;30.30;17.17;;;6.10;74.20;;;;;;5069864;28;20255;-67
2022/03/04 02:16:22;;;;;;;33.53;17.25;;;6.10;74.30;;;;;;5069739;28;20649;-67
2022/03/04 02:18:48;;;;;;;32.17;17.05;;;6.00;74.40;;;;;;5072012;28;20205;-67
2022/03/04 02:21:14;;;;;;;31.88;16.90;;;6.00;74.60;;;;;;5070371;28;20187;-69
2022/03/04 02:23:39;;;;;;;29.13;16.58;;;6.00;74.80;;;;;;5071587;28;20191;-71
2022/03/04 02:26:05;;;;;;;29.80;16.65;;;6.00;74.90;;;;;;5056240;28;20251;-69
2022/03/04 02:28:31;;;;;;;33.67;17.25;;;5.90;74.90;;;;;;5076883;28;20191;-70
2022/03/04 02:30:57;;;;;;;35.50;16.38;;;5.90;75.00;;;;;;5052426;28;20309;-70
2022/03/04 02:33:22;;;;;;;29.90;17.17;;;5.90;75.10;;;;;;5069009;28;20233;-68
2022/03/04 02:35:48;;;;;;;31.10;16.77;;;5.90;75.30;;;;;;5054050;28;20263;-67
2022/03/04 02:38:14;;;;;;;31.35;17.50;;;5.80;75.60;;;;;;5067029;28;20178;-66
2022/03/04 02:40:40;;;;;;;30.67;17.17;;;5.80;75.70;;;;;;5071148;28;20219;-67
2022/03/04 02:43:06;;;;;;;32.65;16.58;;;5.80;75.70;;;;;;5079387;28;20206;-68
2022/03/04 02:45:32;;;;;;;35.17;16.45;;;5.70;75.70;;;;;;5071029;28;20202;-67
2022/03/04 02:47:58;;;;;;;31.10;17.73;;;5.70;75.80;;;;;;5069924;28;20186;-67
2022/03/04 02:50:24;;;;;;;31.08;17.13;;;5.70;75.90;;;;;;5066297;28;20252;-69
2022/03/04 02:52:49;;;;;;;36.88;17.02;;;5.70;76.10;;;;;;5076998;28;20237;-65
2022/03/04 02:55:15;;;;;;;35.10;17.60;;;5.60;76.20;;;;;;5085666;28;20185;-66
2022/03/04 02:57:44;;;;;;;32.97;17.23;;;5.60;76.40;;;;;;5068629;28;20183;-67
2022/03/04 03:00:11;;;;;;;32.63;20.97;;;5.50;76.50;;;;;;5068298;28;20514;-66
2022/03/04 03:02:37;;;;;;;34.70;20.73;;;5.90;78.40;;;;;;5071462;28;20422;-68
2022/03/04 03:05:03;;;;;;;30.90;20.35;;;6.30;77.40;;;;;;5077497;28;20497;-67
2022/03/04 03:07:29;;;;;;;35.45;20.77;;;6.50;76.70;;;;;;5069398;28;20456;-67
2022/03/04 03:09:55;;;;;;;31.27;20.75;;;6.70;76.30;;;;;;5073512;28;20941;-68
2022/03/04 03:12:21;;;;;;;32.20;20.65;;;6.70;75.60;;;;;;5057320;28;20434;-67
2022/03/04 03:14:47;;;;;;;31.80;20.17;;;6.80;75.60;;;;;;5065310;28;20417;-67
2022/03/04 03:17:13;;;;;;;31.70;20.93;;;6.80;75.10;;;;;;5071286;28;20430;-66
2022/03/04 03:19:39;;;;;;;31.77;21.05;;;6.90;75.60;;;;;;5065532;28;20465;-66
2022/03/04 03:22:05;;;;;;;32.22;20.83;;;6.90;75.10;;;;;;5052454;28;20407;-67
2022/03/04 03:24:30;;;;;;;30.90;20.37;;;6.90;75.30;;;;;;5076118;28;20419;-66
2022/03/04 03:26:57;;;;;;;33.47;20.35;;;6.90;76.10;;;;;;5067632;28;20532;-65
2022/03/04 03:29:23;;;;;;;32.20;20.77;;;7.00;75.90;;;;;;5050707;28;20519;-66
2022/03/04 03:31:48;;;;;;;32.17;21.08;;;6.90;75.20;;;;;;5072748;28;20417;-66
2022/03/04 03:34:14;;;;;;;31.50;20.57;;;7.00;75.80;;;;;;5071439;28;20410;-66
2022/03/04 03:36:40;;;;;;;32.05;20.67;;;7.00;75.30;;;;;;5070977;28;20423;-68
2022/03/04 03:39:08;;;;;;;30.02;19.85;;;7.00;75.00;;;;;;5069095;28;20400;-67
2022/03/04 03:41:35;;;;;;;32.77;20.40;;;7.00;74.70;;;;;;5071735;28;20427;-65
2022/03/04 03:44:00;;;;;;;31.63;20.48;;;7.00;74.60;;;;;;5061907;28;20853;-66
2022/03/04 03:46:26;;;;;;;29.60;19.92;;;6.90;74.90;;;;;;5064870;28;20500;-67
2022/03/04 03:48:52;;;;;;;32.17;20.77;;;6.90;74.30;;;;;;5067084;28;20399;-66
2022/03/04 03:51:18;;;;;;;33.90;20.40;;;6.90;74.60;;;;;;5066937;28;20403;-67
2022/03/04 03:53:43;;;;;;;30.77;20.30;;;6.90;74.80;;;;;;5066925;28;20415;-67
2022/03/04 03:56:09;;;;;;;31.80;20.60;;;6.90;75.00;;;;;;5047640;28;20492;-68
2022/03/04 03:58:35;;;;;;;31.00;20.37;;;6.80;74.90;;;;;;5067481;28;20513;-67
2022/03/04 04:01:00;;;;;;;31.98;20.52;;;6.80;75.10;;;;;;5065286;28;20386;-66
2022/03/04 04:03:26;;;;;;;31.67;20.93;;;6.80;75.50;;;;;;5070542;28;20422;-67
2022/03/04 04:05:52;;;;;;;33.33;21.05;;;6.80;75.50;;;;;;5048340;28;20406;-66
2022/03/04 04:08:17;;;;;;;31.37;20.70;;;6.80;76.30;;;;;;5068044;28;20437;-66
2022/03/04 04:10:43;;;;;;;32.03;20.40;;;6.80;76.00;;;;;;5074604;28;20446;-68
2022/03/04 04:13:09;;;;;;;32.75;20.90;;;6.70;75.60;;;;;;5067992;28;20799;-68
2022/03/04 04:15:34;;;;;;;31.20;20.60;;;6.70;76.20;;;;;;5067279;28;20415;-68
2022/03/04 04:18:00;;;;;;;31.00;20.20;;;6.70;76.40;;;;;;5064848;28;20422;-69
2022/03/04 04:20:26;;;;;;;32.07;20.50;;;6.70;76.40;;;;;;5079260;28;20403;-70
2022/03/04 04:22:52;;;;;;;31.00;20.08;;;6.70;76.70;;;;;;5062471;28;20407;-69
2022/03/04 04:25:17;;;;;;;32.00;20.50;;;6.60;76.50;;;;;;5068226;28;20419;-68
2022/03/04 04:27:45;;;;;;;28.48;19.95;;;6.70;76.80;;;;;;5049407;28;20787;-66
2022/03/04 04:30:11;;;;;;;31.23;20.67;;;6.60;77.10;;;;;;5066485;28;20415;-67
2022/03/04 04:32:37;;;;;;;32.43;21.23;;;6.60;77.30;;;;;;5066140;28;20769;-68
2022/03/04 04:35:03;;;;;;;29.38;20.15;;;6.60;77.30;;;;;;5073646;28;20406;-69
2022/03/04 04:37:29;;;;;;;31.42;20.58;;;6.60;77.50;;;;;;5065196;28;20769;-66
2022/03/04 04:39:55;;;;;;;30.60;20.13;;;6.60;77.30;;;;;;5064241;28;20411;-68
2022/03/04 04:42:20;;;;;;;31.20;20.77;;;6.60;78.10;;;;;;5049134;28;20429;-68
2022/03/04 04:44:46;;;;;;;31.05;20.65;;;6.50;77.70;;;;;;5066976;28;20415;-66
2022/03/04 04:47:12;;;;;;;32.40;20.43;;;6.50;77.80;;;;;;5062299;28;20546;-67
2022/03/04 04:49:38;;;;;;;30.00;19.85;;;6.50;77.70;;;;;;5065593;28;20456;-67
2022/03/04 04:52:05;;;;;;;34.42;20.70;;;6.50;78.10;;;;;;5066567;28;20418;-68
2022/03/04 04:54:32;;;;;;;31.02;20.33;;;6.50;78.10;;;;;;5065201;28;20926;-67
2022/03/04 04:56:58;;;;;;;31.90;20.85;;;6.50;78.10;;;;;;5075388;28;20780;-66
2022/03/04 04:59:24;;;;;;;31.48;21.25;;;6.50;78.10;;;;;;5070502;28;20407;-67
2022/03/04 05:01:49;;;;;;;33.38;21.00;;;6.50;78.40;;;;;;5052848;28;20449;-66
2022/03/04 05:04:15;;;;;;;30.77;20.37;;;6.50;78.80;;;;;;5070128;28;20468;-69
2022/03/04 05:06:40;;;;;;;32.67;21.27;;;6.40;79.00;;;;;;5069993;28;20903;-69
2022/03/04 05:09:06;;;;;;;32.90;20.52;;;6.40;79.10;;;;;;5051421;28;20887;-68
2022/03/04 05:11:32;;;;;;;33.57;21.40;;;6.40;79.60;;;;;;5070207;28;20483;-67
2022/03/04 05:13:58;;;;;;;32.45;21.13;;;6.40;79.20;;;;;;5077830;28;20406;-66
2022/03/04 05:16:23;;;;;;;32.58;21.25;;;6.40;79.90;;;;;;5070121;28;20425;-68
2022/03/04 05:18:49;;;;;;;34.60;21.17;;;6.40;79.90;;;;;;5075501;28;20415;-68
2022/03/04 05:21:15;;;;;;;32.97;21.13;;;6.40;79.80;;;;;;5067793;28;20416;-66
2022/03/04 05:23:59;;;;;;;32.63;20.85;;;6.40;79.90;;;;;;5073064;28;20822;-65
2022/03/04 05:26:30;;;;;;;33.57;21.37;;;6.40;79.80;;;;;;5068934;28;20891;-67
2022/03/04 05:28:57;;;;;;;32.60;21.40;;;6.30;80.00;;;;;;5072621;28;20895;-67
2022/03/04 05:31:23;;;;;;;36.55;21.88;;;6.30;80.20;;;;;;5086960;28;20526;-68
2022/03/04 05:33:50;;;;;;;31.07;21.00;;;6.30;80.10;;;;;;5068674;28;20522;-68
2022/03/04 05:36:16;;;;;;;34.05;21.58;;;6.30;80.00;;;;;;5066473;28;20992;-66
2022/03/04 05:38:42;;;;;;;34.20;21.85;;;6.30;80.20;;;;;;5069085;28;20450;-67
2022/03/04 05:41:07;;;;;;;32.17;21.33;;;6.30;80.50;;;;;;5072623;28;20920;-68
2022/03/04 05:43:33;;;;;;;35.60;22.20;;;6.30;80.90;;;;;;5079802;28;21114;-68
2022/03/04 05:45:58;;;;;;;35.73;22.10;;;6.30;80.80;;;;;;5071041;28;20875;-70
2022/03/04 05:48:24;;;;;;;35.03;22.48;;;6.30;80.60;;;;;;5070223;28;20403;-66
2022/03/04 05:50:50;;;;;;;33.93;21.57;;;6.30;80.70;;;;;;5079346;28;20417;-66
2022/03/04 05:53:15;;;;;;;34.85;22.30;;;6.30;81.90;;;;;;5068638;28;20406;-66
2022/03/04 05:55:41;;;;;;;32.43;21.43;;;6.20;81.70;;;;;;5047192;28;20423;-66
2022/03/04 05:58:07;;;;;;;34.90;22.00;;;6.30;81.80;;;;;;5070334;28;20410;-66
2022/03/04 06:00:32;;;;;;;37.95;22.42;;;6.30;81.80;;;;;;5070857;28;20452;-67
2022/03/04 06:02:58;;;;;;;35.60;22.27;;;6.20;81.80;;;;;;5074380;28;20488;-68
2022/03/04 06:05:24;;;;;;;34.78;21.67;;;6.20;81.70;;;;;;5054726;28;20906;-67
2022/03/04 06:07:50;;;;;;;33.85;21.77;;;6.20;81.90;;;;;;5078702;28;20426;-68
2022/03/04 06:10:15;;;;;;;35.27;22.07;;;6.20;82.10;;;;;;5067898;28;20430;-69
2022/03/04 06:12:41;;;;;;;35.92;22.30;;;6.10;82.30;;;;;;5067624;28;20430;-67
2022/03/04 06:15:08;;;;;;;38.47;22.77;;;6.10;83.30;;;;;;5065340;28;20409;-67
2022/03/04 06:17:34;;;;;;;36.40;22.35;;;6.10;83.00;;;;;;5052043;28;20397;-66
2022/03/04 06:20:00;;;;;;;36.50;22.98;;;6.10;83.10;;;;;;5065987;28;21239;-67
2022/03/04 06:22:26;;;;;;;34.47;22.87;;;6.10;83.00;;;;;;5079049;28;20401;-67
2022/03/04 06:24:51;;;;;;;35.70;22.33;;;6.10;83.00;;;;;;5076199;28;20407;-68
2022/03/04 06:27:17;;;;;;;36.33;22.52;;;6.00;83.00;;;;;;5076931;28;20828;-66
2022/03/04 06:29:43;;;;;;;33.47;21.75;;;6.00;83.00;;;;;;5073547;28;20812;-66
2022/03/04 06:32:09;;;;;;;35.50;22.50;;;6.00;83.20;;;;;;5058634;28;20443;-67
2022/03/04 06:34:35;;;;;;;34.97;22.00;;;6.00;83.40;;;;;;5051812;28;20416;-69
2022/03/04 06:37:01;;;;;;;34.05;22.55;;;5.90;83.70;;;;;;5074621;28;20405;-67
2022/03/04 06:39:27;;;;;;;34.27;22.60;;;5.90;84.00;;;;;;5065814;28;20397;-67
2022/03/04 06:41:53;;;;;;;32.95;22.25;;;5.90;84.10;;;;;;5070871;28;20408;-66
2022/03/04 06:44:19;;;;;;;35.88;22.58;;;5.90;84.00;;;;;;5074472;28;20403;-69
2022/03/04 06:46:44;;;;;;;35.23;22.03;;;5.90;84.10;;;;;;5082400;28;20747;-68
2022/03/04 06:49:11;;;;;;;35.80;22.58;;;5.90;84.20;;;;;;5073887;28;20407;-69
2022/03/04 06:51:46;;;;;;;36.90;22.30;;;5.90;84.40;;;;;;5060251;28;20434;-67
2022/03/04 06:54:12;;;;;;;34.45;22.55;;;5.90;85.00;;;;;;5073278;28;20415;-68
2022/03/04 06:56:38;;;;;;;33.53;22.07;;;5.90;84.90;;;;;;5067340;28;20437;-68
2022/03/04 06:59:03;;;;;;;37.65;23.52;;;5.90;85.20;;;;;;5067277;28;20415;-66
2022/03/04 07:01:29;;;;;;;37.13;23.23;;;5.90;85.30;;;;;;5067695;28;20453;-69
2022/03/04 07:03:55;;;;;;;32.70;21.97;;;5.90;85.30;;;;;;5066359;28;20399;-67
2022/03/04 07:06:20;;;;;;;36.70;23.27;;;5.90;85.80;;;;;;5068157;28;20438;-70
2022/03/04 07:08:46;;;;;;;35.47;23.30;;;5.90;85.60;;;;;;5072227;28;20416;-69
2022/03/04 07:11:12;;;;;;;37.50;22.88;;;5.90;85.80;;;;;;5051966;28;20412;-67
2022/03/04 07:13:38;;;;;;;37.03;23.77;;;5.90;85.80;;;;;;5058990;28;20494;-67
2022/03/04 07:16:04;;;;;;;36.25;23.00;;;6.00;85.90;;;;;;5055870;28;21210;-66
2022/03/04 07:18:30;;;;;;;35.50;22.63;;;6.00;86.50;;;;;;5076029;28;20433;-67
2022/03/04 07:20:59;;;;;;;37.33;23.73;;;6.00;86.30;;;;;;5075186;28;20426;-70
2022/03/04 07:23:26;;;;;;;38.15;23.25;;;6.00;86.60;;;;;;5082139;28;20481;-65
2022/03/04 07:25:52;;;;;;;38.88;23.05;;;6.00;86.50;;;;;;5071655;28;20464;-65
2022/03/04 07:28:18;;;;;;;36.50;22.55;;;6.10;86.90;;;;;;5066846;28;20407;-69
2022/03/04 07:30:44;;;;;;;38.57;23.77;;;6.10;87.20;;;;;;5056112;28;20419;-67
2022/03/04 07:33:10;;;;;;;36.78;22.98;;;6.10;87.00;;;;;;5052544;28;21114;-66
2022/03/04 07:35:39;;;;;;;35.37;22.80;;;6.10;87.10;;;;;;5072769;28;20421;-65
2022/03/04 07:38:05;;;;;;;37.90;22.77;;;6.20;86.80;;;;;;5066778;28;20403;-66
2022/03/04 07:40:30;;;;;;;36.17;22.55;;;6.20;87.10;;;;;;5070140;28;20407;-66
2022/03/04 07:42:58;;;;;;;36.13;22.80;;;6.20;86.80;;;;;;5060425;28;20433;-66
2022/03/04 07:45:23;;;;;;;36.20;23.20;;;6.30;86.60;;;;;;5067867;28;20411;-66
2022/03/04 07:47:49;;;;;;;37.17;23.07;;;6.30;86.50;;;;;;5067975;28;20405;-65
2022/03/04 07:50:15;;;;;;;34.88;21.92;;;6.30;86.30;;;;;;5078800;28;20499;-67
2022/03/04 07:52:42;;;;;;;33.05;22.17;;;6.40;85.70;;;;;;5072930;28;20433;-64
2022/03/04 07:55:14;;;;;;;36.27;22.53;;;6.40;85.80;;;;;;5067526;28;20413;-68
2022/03/04 07:57:40;;;;;;;37.90;21.67;;;6.50;85.60;;;;;;5072335;28;20457;-67
2022/03/04 08:00:10;;;;;;;38.58;24.23;;;6.50;85.50;;;;;;5046634;28;20408;-67
2022/03/04 08:02:39;;;;;;;36.88;22.90;;;6.60;86.70;;;;;;5042033;28;20416;-65
2022/03/04 08:05:08;;;;;;;32.00;21.35;;;6.60;85.60;;;;;;5071391;28;20406;-65
2022/03/04 08:07:34;;;;;;;36.15;21.45;;;6.70;84.80;;;;;;5056709;28;20848;-68
2022/03/04 08:09:59;;;;;;;32.22;21.00;;;6.70;84.70;;;;;;5074664;28;20406;-67
2022/03/04 08:12:25;;;;;;;35.33;21.17;;;6.80;84.60;;;;;;5062621;28;20400;-69
2022/03/04 08:14:51;;;;;;;32.40;20.92;;;6.80;83.20;;;;;;5056405;28;20394;-68
2022/03/04 08:17:17;;;;;;;30.98;20.60;;;6.90;83.10;;;;;;5037073;28;20398;-67
2022/03/04 08:19:43;;;;;;;32.43;21.03;;;6.90;83.20;;;;;;5066572;28;20408;-67
2022/03/04 08:22:09;;;;;;;32.83;20.58;;;7.00;83.10;;;;;;5066438;28;20494;-67
2022/03/04 08:24:34;;;;;;;30.80;20.37;;;7.10;82.70;;;;;;5068725;28;20407;-66
2022/03/04 08:27:00;;;;;;;32.35;20.40;;;7.10;81.30;;;;;;5050324;28;20406;-70
2022/03/04 08:29:26;;;;;;;34.53;18.95;;;7.30;82.10;;;;;;5075364;28;20292;-68
2022/03/04 08:31:51;;;;;;;40.65;23.00;;;7.00;83.30;;;;;;5074088;28;20297;-68
2022/03/04 08:34:18;;;;;;;30.92;18.30;;;6.90;84.80;;;;;;5074380;28;20241;-68
2022/03/04 08:36:44;;;;;;;29.10;18.75;;;7.00;86.00;;;;;;5072998;28;20178;-69
2022/03/04 08:39:09;;;;;;;42.22;18.35;;;7.30;86.80;;;;;;5072271;28;20224;-67
2022/03/04 08:41:35;;;;;;;29.42;18.23;;;7.80;87.20;;;;;;5072649;28;20648;-67
2022/03/04 08:44:01;;;;;;;;;;;8.70;86.70;;;;;;5083071;28;20046;-67
2022/03/04 08:46:27;;;;;;;24.98;17.92;;;9.60;85.90;;;;;;5079205;28;20406;-68
2022/03/04 08:48:54;;;;;;;28.08;19.38;;;12.00;67.00;;;;;;5075816;28;20382;-67
2022/03/04 08:51:25;;;;;;;26.23;18.20;;;14.30;54.50;;;;;;5073427;28;20942;-69
2022/03/04 08:53:54;;;;;;;24.25;17.17;;;16.00;49.10;;;;;;5073266;28;20418;-69
2022/03/04 08:56:21;;;;;;;22.83;17.27;;;17.40;45.20;;;;;;5059576;28;20469;-68
2022/03/04 08:58:47;;;;;;;26.80;17.85;;;18.60;42.10;;;;;;5081087;28;20401;-66
2022/03/04 09:01:13;;;;;;;24.55;17.55;;;19.50;39.30;;;;;;5074318;28;20419;-66
2022/03/04 09:03:39;;;;;;;26.13;16.95;;;20.10;37.20;;;;;;5073856;28;20191;-68
2022/03/04 09:06:06;;;;;;;23.15;16.02;;;19.60;40.70;;;;;;5079661;28;20239;-68
2022/03/04 09:08:32;;;;;;;26.90;18.55;;;19.20;42.30;;;;;;5070584;28;22084;-66
2022/03/04 09:10:58;;;;;;;25.73;18.30;;;20.20;37.80;;;;;;5077990;28;20896;-65
2022/03/04 09:13:24;;;;;;;26.10;17.60;;;20.80;36.10;;;;;;5086177;28;20293;-68
2022/03/04 09:15:50;;;;;;;30.20;18.25;;;20.10;39.00;;;;;;5053130;28;20959;-67
2022/03/04 09:18:15;;;;;;;23.77;17.63;;;20.50;37.00;;;;;;5068503;28;20411;-68
2022/03/04 09:20:41;;;;;;;24.80;17.60;;;20.60;36.00;;;;;;5070848;28;20403;-67
2022/03/04 09:23:07;;;;;;;24.85;17.83;;;20.60;36.20;;;;;;5069003;28;20415;-67
2022/03/04 09:25:34;;;;;;;25.43;17.07;;;20.50;36.20;;;;;;5069383;28;20407;-66
2022/03/04 09:28:01;;;;;;;24.30;16.50;;;20.30;37.10;;;;;;5052451;28;20201;-65
2022/03/04 09:30:28;;;;;;;23.73;16.00;;;19.60;38.90;;;;;;5071178;28;20902;-67
2022/03/04 09:32:53;;;;;;;25.52;15.82;;;19.00;40.10;;;;;;5072660;28;20355;-67
2022/03/04 09:35:19;;;;;;;27.08;17.33;;;18.50;41.00;;;;;;5054072;28;20179;-68
2022/03/04 09:37:45;;;;;;;28.83;17.83;;;18.10;41.70;;;;;;5052073;28;20547;-67
2022/03/04 09:40:12;;;;;;;26.05;16.63;;;17.80;42.20;;;;;;5069786;28;20188;-67
2022/03/04 09:42:39;;;;;;;32.40;17.60;;;17.60;42.70;;;;;;5070000;28;20281;-67
2022/03/04 09:45:05;;;;;;;26.63;16.98;;;17.50;43.00;;;;;;5052324;28;20612;-68
2022/03/04 09:47:31;;;;;;;24.17;16.75;;;17.40;43.10;;;;;;5076469;28;20197;-66
2022/03/04 09:49:58;;;;;;;24.50;16.80;;;17.30;43.50;;;;;;5070829;28;20198;-68
2022/03/04 09:52:24;;;;;;;25.13;16.60;;;17.20;44.00;;;;;;5069137;28;20194;-67
2022/03/04 09:54:52;;;;;;;25.75;17.02;;;17.20;44.00;;;;;;5066627;28;20189;-67
2022/03/04 09:57:18;;;;;;;25.98;16.75;;;17.00;44.00;;;;;;5069038;28;20656;-68
2022/03/04 09:59:44;;;;;;;25.67;16.75;;;16.90;44.30;;;;;;5070625;28;20198;-68
2022/03/04 10:02:12;;;;;;;26.60;17.02;;;16.80;44.80;;;;;;5076061;28;20236;-67
2022/03/04 10:04:38;;;;;;;23.23;16.50;;;16.70;45.00;;;;;;5078979;28;20277;-68
2022/03/04 10:07:15;;;;;;;24.48;16.90;;;16.60;44.80;;;;;;5068623;28;20190;-66
2022/03/04 10:09:47;;;;;;;24.35;16.40;;;16.40;44.90;;;;;;5052319;28;20273;-68
2022/03/04 10:12:15;;;;;;;28.65;17.40;;;16.20;45.40;;;;;;5068644;28;20680;-68
2022/03/04 10:14:57;;;;;;;24.63;16.77;;;16.00;45.60;;;;;;5068006;28;20187;-68
2022/03/04 10:17:23;;;;;;;27.48;17.17;;;15.80;45.80;;;;;;5066570;28;20214;-67
2022/03/04 10:20:09;;;;;;;25.88;17.33;;;15.80;46.20;;;;;;5070777;28;20174;-69
2022/03/04 10:22:37;;;;;;;;;;;15.70;46.40;;;;;;5067541;28;20370;-68
2022/03/04 10:25:21;;;;;;;;;;;15.60;46.40;;;;;;5050523;28;19958;-66
2022/03/04 10:27:47;;;;;;;24.30;17.73;;;15.40;48.00;;;;;;5050245;28;20590;-65
2022/03/04 10:30:15;;;;;;;25.38;17.40;;;15.80;47.20;;;;;;5070936;28;20631;-66
2022/03/04 10:32:40;;;;;;;28.30;17.13;;;15.60;47.30;;;;;;5082084;28;20654;-66
2022/03/04 10:35:09;;;;;;;26.27;16.90;;;15.30;47.60;;;;;;5051251;28;20192;-68
2022/03/04 10:37:54;;;;;;;25.83;16.83;;;15.20;48.40;;;;;;5070640;28;20183;-66
2022/03/04 10:40:21;;;;;;;27.13;16.63;;;15.20;48.30;;;;;;5072890;28;20187;-67
2022/03/04 10:42:52;;;;;;;26.65;16.98;;;15.20;48.50;;;;;;5068818;28;20190;-65
2022/03/04 10:45:20;;;;;;;28.52;17.10;;;15.20;48.70;;;;;;5052128;28;20190;-66
2022/03/04 10:47:54;;;;;;;24.90;17.00;;;15.10;48.40;;;;;;5079749;28;20748;-66
2022/03/04 10:50:29;;;;;;;30.70;16.90;;;15.10;48.70;;;;;;5070023;28;20182;-67
2022/03/04 10:53:00;;;;;;;29.00;17.67;;;15.10;48.70;;;;;;5079821;28;20205;-68
2022/03/04 10:55:48;;;;;;;27.55;17.63;;;15.10;48.80;;;;;;5058671;28;20471;-66
2022/03/04 10:58:19;;;;;;;25.63;17.77;;;15.70;47.90;;;;;;5073943;28;20411;-67
2022/03/04 11:01:12;;;;;;;23.60;17.40;;;16.00;45.50;;;;;;5075511;28;20403;-66
2022/03/04 11:03:39;;;;;;;26.83;18.02;;;16.10;45.20;;;;;;5066898;28;20411;-66
2022/03/04 11:06:07;;;;;;;25.73;17.00;;;16.10;45.30;;;;;;5073090;28;20431;-67
2022/03/04 11:08:33;;;;;;;24.55;17.17;;;16.30;46.30;;;;;;5068674;28;20408;-68
2022/03/04 11:11:00;;;;;;;26.73;17.33;;;16.50;45.90;;;;;;5066565;28;20426;-68
2022/03/04 11:13:29;;;;;;;25.75;17.42;;;16.60;44.30;;;;;;5068206;28;20412;-66
2022/03/04 11:15:55;;;;;;;24.95;17.52;;;16.60;44.70;;;;;;5056614;28;20413;-67
2022/03/04 11:18:22;;;;;;;22.10;16.55;;;16.60;44.80;;;;;;5078401;28;20762;-68
2022/03/04 11:20:53;;;;;;;25.10;16.70;;;16.60;44.00;;;;;;5066357;28;20929;-67
2022/03/04 11:23:25;;;;;;;21.98;16.33;;;16.50;43.80;;;;;;5071704;28;20418;-67
2022/03/04 11:25:57;;;;;;;22.88;16.13;;;16.50;45.10;;;;;;5049052;28;20422;-65
2022/03/04 11:28:27;;;;;;;25.17;16.95;;;16.50;45.70;;;;;;5071913;28;20457;-68
2022/03/04 11:31:00;;;;;;;26.27;17.08;;;16.60;45.10;;;;;;5070664;28;20455;-67
2022/03/04 11:33:31;;;;;;;22.20;15.88;;;16.70;44.20;;;;;;5069738;28;20445;-66
2022/03/04 11:36:18;;;;;;;25.35;16.83;;;16.90;44.10;;;;;;5049571;28;20518;-64
2022/03/04 11:38:44;;;;;;;22.10;16.15;;;17.00;44.00;;;;;;5067269;28;20399;-66
2022/03/04 11:41:11;;;;;;;23.70;16.27;;;17.00;42.10;;;;;;5068681;28;20772;-68
2022/03/04 11:44:17;;;;;;;24.13;16.20;;;16.90;42.60;;;;;;5072427;28;22638;-66
2022/03/04 11:46:56;;;;;;;25.52;16.80;;;16.90;42.60;;;;;;5066673;28;20951;-67
2022/03/04 11:49:38;;;;;;;21.85;15.65;;;16.80;42.50;;;;;;5049269;28;20733;-67
2022/03/04 11:52:10;;;;;;;21.65;15.52;;;16.70;42.30;;;;;;5068200;28;20841;-65
2022/03/04 11:54:39;;;;;;;24.35;16.67;;;16.60;42.50;;;;;;5047868;28;20419;-66
2022/03/04 11:57:17;;;;;;;25.48;16.23;;;16.60;44.00;;;;;;5072072;28;20406;-67
2022/03/04 11:59:59;;;;;;;24.17;15.87;;;16.70;42.90;;;;;;5073079;28;20405;-67
2022/03/04 12:02:46;;;;;;;22.17;16.02;;;16.80;45.10;;;;;;5074051;28;20403;-64
2022/03/04 12:05:33;;;;;;;22.25;15.82;;;16.90;43.20;;;;;;5074157;28;21195;-67
2022/03/04 12:07:59;;;;;;;21.25;15.43;;;16.90;42.60;;;;;;5068378;28;20395;-65
2022/03/04 12:10:36;;;;;;;22.60;14.77;;;16.90;43.40;;;;;;5064704;28;20772;-67
2022/03/04 12:13:11;;;;;;;21.57;14.80;;;17.00;42.30;;;;;;5048739;28;20411;-67
2022/03/04 12:15:52;;;;;;;21.65;14.13;;;17.00;40.60;;;;;;5081056;28;20405;-66
2022/03/04 12:18:25;;;;;;;21.35;14.55;;;16.90;40.30;;;;;;5077217;28;20410;-67
2022/03/04 12:20:56;;;;;;;20.92;14.32;;;17.00;41.20;;;;;;5075524;28;20512;-66
2022/03/04 12:23:29;;;;;;;21.38;13.55;;;17.10;41.10;;;;;;5049854;28;20883;-68
2022/03/04 12:25:58;;;;;;;19.10;13.82;;;17.20;40.60;;;;;;5070478;28;20454;-68
2022/03/04 12:28:34;;;;;;;20.08;13.38;;;17.20;41.70;;;;;;5065704;28;20419;-66
2022/03/04 12:31:04;;;;;;;18.98;13.20;;;17.30;40.10;;;;;;5073315;28;20429;-66
2022/03/04 12:33:33;;;;;;;18.77;13.30;;;17.40;38.80;;;;;;5074281;28;20423;-68
2022/03/04 12:36:00;;;;;;;23.40;13.15;;;17.50;38.80;;;;;;5049708;28;20903;-68
2022/03/04 12:38:36;;;;;;;18.35;12.80;;;17.60;39.60;;;;;;5067601;28;20415;-67